sensor_id;sensor_type;location;lat;lon;timestamp;pressure;altitude;pressure_sealevel;temperature;humidity
71805;BME280;59654;52.216;5.616;2023-08-06T00:00:16;100222.47;;;14.29;100.00
71805;BME280;59654;52.216;5.616;2023-08-06T00:00:46;100223.31;;;14.30;100.00
71805;BME280;59654;52.216;5.616;2023-08-06T00:01:17;100218.06;;;14.28;100.00
71805;BME280;59654;52.216;5.616;2023-08-06T00:01:51;100213.66;;;14.27;100.00
71805;BME280;59654;52.216;5.616;2023-08-06T00:02:23;100221.59;;;14.29;100.00
71805;BME280;59654;52.216;5.616;2023-08-06T00:02:53;100217.19;;;14.28;100.00
71805;BME280;59654;52.216;5.616;2023-08-06T00:03:24;100215.47;;;14.27;100.00
71805;BME280;59654;52.216;5.616;2023-08-06T00:03:55;100215.56;;;14.25;100.00
71805;BME280;59654;52.216;5.616;2023-08-06T00:04:26;100218.16;;;14.27;100.00
71805;BME280;59654;52.216;5.616;2023-08-06T00:04:56;100219.97;;;14.26;100.00
71805;BME280;59654;52.216;5.616;2023-08-06T00:05:27;100221.88;;;14.24;100.00
71805;BME280;59654;52.216;5.616;2023-08-06T00:05:58;100219.31;;;14.23;100.00
71805;BME280;59654;52.216;5.616;2023-08-06T00:06:29;100215.66;;;14.24;100.00
71805;BME280;59654;52.216;5.616;2023-08-06T00:06:59;100219.31;;;14.23;100.00
71805;BME280;59654;52.216;5.616;2023-08-06T00:07:30;100216.63;;;14.23;100.00
71805;BME280;59654;52.216;5.616;2023-08-06T00:08:01;100220.16;;;14.23;100.00
71805;BME280;59654;52.216;5.616;2023-08-06T00:08:32;100216.63;;;14.23;100.00
71805;BME280;59654;52.216;5.616;2023-08-06T00:09:03;100219.19;;;14.24;100.00
71805;BME280;59654;52.216;5.616;2023-08-06T00:09:34;100214.03;;;14.21;100.00
71805;BME280;59654;52.216;5.616;2023-08-06T00:10:05;100216.53;;;14.24;100.00
71805;BME280;59654;52.216;5.616;2023-08-06T00:10:36;100213.84;;;14.24;100.00
71805;BME280;59654;52.216;5.616;2023-08-06T00:11:07;100213.84;;;14.24;100.00
71805;BME280;59654;52.216;5.616;2023-08-06T00:11:38;100220.94;;;14.25;100.00
71805;BME280;59654;52.216;5.616;2023-08-06T00:12:08;100215.56;;;14.25;100.00
71805;BME280;59654;52.216;5.616;2023-08-06T00:12:40;100219.19;;;14.24;100.00
71805;BME280;59654;52.216;5.616;2023-08-06T00:13:10;100223.59;;;14.25;100.00
71805;BME280;59654;52.216;5.616;2023-08-06T00:13:41;100216.53;;;14.24;100.00
71805;BME280;59654;52.216;5.616;2023-08-06T00:14:13;100212.97;;;14.24;100.00
71805;BME280;59654;52.216;5.616;2023-08-06T00:14:50;100217.38;;;14.25;100.00
71805;BME280;59654;52.216;5.616;2023-08-06T00:15:22;100215.75;;;14.22;100.00
71805;BME280;59654;52.216;5.616;2023-08-06T00:15:52;100215.75;;;14.22;100.00
71805;BME280;59654;52.216;5.616;2023-08-06T00:16:23;100216.72;;;14.21;100.00
71805;BME280;59654;52.216;5.616;2023-08-06T00:16:54;100212.22;;;14.22;100.00
71805;BME280;59654;52.216;5.616;2023-08-06T00:17:25;100211.25;;;14.23;100.00
71805;BME280;59654;52.216;5.616;2023-08-06T00:17:56;100217.47;;;14.23;100.00
71805;BME280;59654;52.216;5.616;2023-08-06T00:18:27;100221.03;;;14.24;100.00
71805;BME280;59654;52.216;5.616;2023-08-06T00:18:58;100214.78;;;14.23;100.00
71805;BME280;59654;52.216;5.616;2023-08-06T00:19:29;100217.47;;;14.23;100.00
71805;BME280;59654;52.216;5.616;2023-08-06T00:20:01;100213.94;;;14.23;100.00
71805;BME280;59654;52.216;5.616;2023-08-06T00:20:39;100203.22;;;14.23;100.00
71805;BME280;59654;52.216;5.616;2023-08-06T00:21:10;100211.16;;;14.24;100.00
71805;BME280;59654;52.216;5.616;2023-08-06T00:21:42;100214.69;;;14.25;100.00
71805;BME280;59654;52.216;5.616;2023-08-06T00:22:13;100212.03;;;14.25;100.00
71805;BME280;59654;52.216;5.616;2023-08-06T00:22:44;100208.47;;;14.24;100.00
71805;BME280;59654;52.216;5.616;2023-08-06T00:23:15;100215.56;;;14.25;100.00
71805;BME280;59654;52.216;5.616;2023-08-06T00:23:45;100219.00;;;14.27;100.00
71805;BME280;59654;52.216;5.616;2023-08-06T00:24:16;100216.34;;;14.27;100.00
71805;BME280;59654;52.216;5.616;2023-08-06T00:24:47;100212.78;;;14.27;100.00
71805;BME280;59654;52.216;5.616;2023-08-06T00:25:18;100210.88;;;14.29;100.00
71805;BME280;59654;52.216;5.616;2023-08-06T00:25:49;100204.66;;;14.28;100.00
71805;BME280;59654;52.216;5.616;2023-08-06T00:26:19;100208.19;;;14.29;100.00
71805;BME280;59654;52.216;5.616;2023-08-06T00:26:50;100204.66;;;14.28;100.00
71805;BME280;59654;52.216;5.616;2023-08-06T00:27:21;100209.16;;;14.28;100.00
71805;BME280;59654;52.216;5.616;2023-08-06T00:27:52;100205.59;;;14.27;100.00
71805;BME280;59654;52.216;5.616;2023-08-06T00:28:23;100200.16;;;14.29;100.00
71805;BME280;59654;52.216;5.616;2023-08-06T00:28:54;100203.69;;;14.29;100.00
71805;BME280;59654;52.216;5.616;2023-08-06T00:29:25;100201.88;;;14.30;100.00
71805;BME280;59654;52.216;5.616;2023-08-06T00:29:56;100210.78;;;14.30;100.00
71805;BME280;59654;52.216;5.616;2023-08-06T00:30:26;100198.34;;;14.29;100.00
71805;BME280;59654;52.216;5.616;2023-08-06T00:30:57;100207.25;;;14.30;100.00
71805;BME280;59654;52.216;5.616;2023-08-06T00:31:28;100205.41;;;14.30;100.00
71805;BME280;59654;52.216;5.616;2023-08-06T00:31:59;100213.47;;;14.30;100.00
71805;BME280;59654;52.216;5.616;2023-08-06T00:32:30;100213.47;;;14.30;100.00
71805;BME280;59654;52.216;5.616;2023-08-06T00:33:00;100214.41;;;14.29;100.00
71805;BME280;59654;52.216;5.616;2023-08-06T00:33:31;100207.34;;;14.28;100.00
71805;BME280;59654;52.216;5.616;2023-08-06T00:34:02;100201.88;;;14.30;100.00
71805;BME280;59654;52.216;5.616;2023-08-06T00:34:33;100205.41;;;14.30;100.00
71805;BME280;59654;52.216;5.616;2023-08-06T00:35:04;100202.06;;;14.27;100.00
71805;BME280;59654;52.216;5.616;2023-08-06T00:35:35;100205.50;;;14.29;100.00
71805;BME280;59654;52.216;5.616;2023-08-06T00:36:05;100210.00;;;14.28;100.00
71805;BME280;59654;52.216;5.616;2023-08-06T00:36:36;100212.69;;;14.28;100.00
71805;BME280;59654;52.216;5.616;2023-08-06T00:37:07;100205.50;;;14.29;100.00
71805;BME280;59654;52.216;5.616;2023-08-06T00:37:38;100207.25;;;14.30;100.00
71805;BME280;59654;52.216;5.616;2023-08-06T00:38:08;100206.38;;;14.29;100.00
71805;BME280;59654;52.216;5.616;2023-08-06T00:38:40;100205.50;;;14.29;100.00
71805;BME280;59654;52.216;5.616;2023-08-06T00:39:11;100210.00;;;14.28;100.00
71805;BME280;59654;52.216;5.616;2023-08-06T00:39:43;100207.34;;;14.28;100.00
71805;BME280;59654;52.216;5.616;2023-08-06T00:40:14;100208.28;;;14.27;100.00
71805;BME280;59654;52.216;5.616;2023-08-06T00:40:45;100203.88;;;14.26;100.00
71805;BME280;59654;52.216;5.616;2023-08-06T00:41:16;100204.66;;;14.28;100.00
71805;BME280;59654;52.216;5.616;2023-08-06T00:41:47;100208.38;;;14.26;100.00
71805;BME280;59654;52.216;5.616;2023-08-06T00:42:17;100210.97;;;14.27;100.00
71805;BME280;59654;52.216;5.616;2023-08-06T00:42:51;100211.84;;;14.28;100.00
71805;BME280;59654;52.216;5.616;2023-08-06T00:43:21;100210.09;;;14.27;100.00
71805;BME280;59654;52.216;5.616;2023-08-06T00:43:52;100209.25;;;14.26;100.00
71805;BME280;59654;52.216;5.616;2023-08-06T00:44:23;100208.38;;;14.26;100.00
71805;BME280;59654;52.216;5.616;2023-08-06T00:44:54;100210.09;;;14.27;100.00
71805;BME280;59654;52.216;5.616;2023-08-06T00:45:25;100205.78;;;14.24;100.00
71805;BME280;59654;52.216;5.616;2023-08-06T00:45:56;100214.69;;;14.25;100.00
71805;BME280;59654;52.216;5.616;2023-08-06T00:46:28;100207.44;;;14.27;100.00
71805;BME280;59654;52.216;5.616;2023-08-06T00:46:59;100208.47;;;14.24;100.00
71805;BME280;59654;52.216;5.616;2023-08-06T00:47:30;100206.75;;;14.23;100.00
71805;BME280;59654;52.216;5.616;2023-08-06T00:48:04;100208.56;;;14.23;100.00
71805;BME280;59654;52.216;5.616;2023-08-06T00:48:35;100209.53;;;14.22;100.00
71805;BME280;59654;52.216;5.616;2023-08-06T00:49:06;100206.13;;;14.20;100.00
71805;BME280;59654;52.216;5.616;2023-08-06T00:49:39;100203.44;;;14.20;100.00
71805;BME280;59654;52.216;5.616;2023-08-06T00:50:10;100200.84;;;14.18;100.00
71805;BME280;59654;52.216;5.616;2023-08-06T00:50:41;100196.34;;;14.19;100.00
71805;BME280;59654;52.216;5.616;2023-08-06T00:51:12;100201.72;;;14.19;100.00
71805;BME280;59654;52.216;5.616;2023-08-06T00:51:43;100209.75;;;14.19;100.00
71805;BME280;59654;52.216;5.616;2023-08-06T00:52:14;100205.34;;;14.18;100.00
71805;BME280;59654;52.216;5.616;2023-08-06T00:52:45;100206.22;;;14.18;100.00
71805;BME280;59654;52.216;5.616;2023-08-06T00:53:16;100207.94;;;14.19;100.00
71805;BME280;59654;52.216;5.616;2023-08-06T00:53:49;100213.28;;;14.19;100.00
71805;BME280;59654;52.216;5.616;2023-08-06T00:54:20;100202.56;;;14.19;100.00
71805;BME280;59654;52.216;5.616;2023-08-06T00:54:51;100204.28;;;14.20;100.00
71805;BME280;59654;52.216;5.616;2023-08-06T00:55:22;100210.63;;;14.19;100.00
71805;BME280;59654;52.216;5.616;2023-08-06T00:55:53;100209.53;;;14.22;100.00
71805;BME280;59654;52.216;5.616;2023-08-06T00:56:25;100205.03;;;14.22;100.00
71805;BME280;59654;52.216;5.616;2023-08-06T00:56:56;100203.31;;;14.21;100.00
71805;BME280;59654;52.216;5.616;2023-08-06T00:57:29;100209.66;;;14.20;100.00
71805;BME280;59654;52.216;5.616;2023-08-06T00:58:00;100201.72;;;14.19;100.00
71805;BME280;59654;52.216;5.616;2023-08-06T00:58:32;100210.63;;;14.19;100.00
71805;BME280;59654;52.216;5.616;2023-08-06T00:59:05;100201.72;;;14.19;100.00
71805;BME280;59654;52.216;5.616;2023-08-06T00:59:37;100207.94;;;14.19;100.00
71805;BME280;59654;52.216;5.616;2023-08-06T01:00:08;100207.06;;;14.19;100.00
71805;BME280;59654;52.216;5.616;2023-08-06T01:00:41;100211.47;;;14.20;100.00
71805;BME280;59654;52.216;5.616;2023-08-06T01:01:12;100207.06;;;14.19;100.00
71805;BME280;59654;52.216;5.616;2023-08-06T01:01:43;100207.06;;;14.19;100.00
71805;BME280;59654;52.216;5.616;2023-08-06T01:02:15;100211.56;;;14.18;100.00
71805;BME280;59654;52.216;5.616;2023-08-06T01:02:48;100209.84;;;14.17;100.00
71805;BME280;59654;52.216;5.616;2023-08-06T01:03:19;100201.03;;;14.15;100.00
71805;BME280;59654;52.216;5.616;2023-08-06T01:03:50;100208.97;;;14.17;100.00
71805;BME280;59654;52.216;5.616;2023-08-06T01:04:22;100204.56;;;14.16;100.00
71805;BME280;59654;52.216;5.616;2023-08-06T01:04:54;100214.34;;;14.17;100.00
71805;BME280;59654;52.216;5.616;2023-08-06T01:05:25;100212.53;;;14.17;100.00
71805;BME280;59654;52.216;5.616;2023-08-06T01:05:56;100206.22;;;14.18;100.00
71805;BME280;59654;52.216;5.616;2023-08-06T01:06:48;100209.84;;;14.17;100.00
71805;BME280;59654;52.216;5.616;2023-08-06T01:13:42;100214.72;;;14.10;100.00
71805;BME280;59654;52.216;5.616;2023-08-06T01:14:45;100203.13;;;14.10;100.00
71805;BME280;59654;52.216;5.616;2023-08-06T01:15:41;100208.50;;;14.10;100.00
71805;BME280;59654;52.216;5.616;2023-08-06T01:16:18;100200.53;;;14.08;100.00
71805;BME280;59654;52.216;5.616;2023-08-06T01:16:50;100201.41;;;14.09;100.00
71805;BME280;59654;52.216;5.616;2023-08-06T01:17:23;100203.22;;;14.08;100.00
71805;BME280;59654;52.216;5.616;2023-08-06T01:17:56;100208.59;;;14.08;100.00
71805;BME280;59654;52.216;5.616;2023-08-06T01:18:27;100201.50;;;14.07;100.00
71805;BME280;59654;52.216;5.616;2023-08-06T01:18:58;100206.88;;;14.07;100.00
71805;BME280;59654;52.216;5.616;2023-08-06T01:19:29;100206.00;;;14.07;100.00
71805;BME280;59654;52.216;5.616;2023-08-06T01:20:00;100207.81;;;14.06;100.00
71805;BME280;59654;52.216;5.616;2023-08-06T01:20:31;100206.00;;;14.07;100.00
71805;BME280;59654;52.216;5.616;2023-08-06T01:21:02;100205.13;;;14.06;100.00
71805;BME280;59654;52.216;5.616;2023-08-06T01:21:33;100207.91;;;14.05;100.00
71805;BME280;59654;52.216;5.616;2023-08-06T01:22:05;100210.72;;;14.03;100.00
71805;BME280;59654;52.216;5.616;2023-08-06T01:22:37;100202.56;;;14.05;100.00
71805;BME280;59654;52.216;5.616;2023-08-06T01:23:07;100206.22;;;14.04;100.00
71805;BME280;59654;52.216;5.616;2023-08-06T01:23:39;100203.53;;;14.04;100.00
71805;BME280;59654;52.216;5.616;2023-08-06T01:24:11;100201.81;;;14.03;100.00
71805;BME280;59654;52.216;5.616;2023-08-06T01:24:47;100206.31;;;14.02;100.00
71805;BME280;59654;52.216;5.616;2023-08-06T01:25:19;100205.34;;;14.03;100.00
71805;BME280;59654;52.216;5.616;2023-08-06T01:26:15;100201.72;;;14.04;100.00
71805;BME280;59654;52.216;5.616;2023-08-06T01:27:17;100204.41;;;14.04;100.00
71805;BME280;59654;52.216;5.616;2023-08-06T01:28:03;100211.69;;;14.02;100.00
71805;BME280;59654;52.216;5.616;2023-08-06T01:28:52;100200.00;;;14.03;100.00
71805;BME280;59654;52.216;5.616;2023-08-06T01:29:43;100200.94;;;14.02;100.00
71805;BME280;59654;52.216;5.616;2023-08-06T01:30:20;100209.00;;;14.02;100.00
71805;BME280;59654;52.216;5.616;2023-08-06T01:30:59;100203.53;;;14.04;100.00
71805;BME280;59654;52.216;5.616;2023-08-06T01:31:37;100197.31;;;14.03;100.00
71805;BME280;59654;52.216;5.616;2023-08-06T01:32:11;100209.75;;;14.04;100.00
71805;BME280;59654;52.216;5.616;2023-08-06T01:32:44;100201.72;;;14.04;100.00
71805;BME280;59654;52.216;5.616;2023-08-06T01:33:21;100202.56;;;14.05;100.00
71805;BME280;59654;52.216;5.616;2023-08-06T01:33:56;100203.53;;;14.04;100.00
71805;BME280;59654;52.216;5.616;2023-08-06T01:34:31;100209.63;;;14.06;100.00
71805;BME280;59654;52.216;5.616;2023-08-06T01:35:04;100197.97;;;14.07;100.00
71805;BME280;59654;52.216;5.616;2023-08-06T01:35:38;100204.41;;;14.04;100.00
71805;BME280;59654;52.216;5.616;2023-08-06T01:36:09;100207.09;;;14.04;100.00
71805;BME280;59654;52.216;5.616;2023-08-06T01:36:41;100205.22;;;14.05;100.00
71805;BME280;59654;52.216;5.616;2023-08-06T01:37:13;100208.91;;;14.04;100.00
71805;BME280;59654;52.216;5.616;2023-08-06T01:37:44;100208.91;;;14.04;100.00
71805;BME280;59654;52.216;5.616;2023-08-06T01:38:16;100207.09;;;14.04;100.00
71805;BME280;59654;52.216;5.616;2023-08-06T01:38:46;100203.63;;;14.02;100.00
71805;BME280;59654;52.216;5.616;2023-08-06T01:39:18;100209.75;;;14.04;100.00
71805;BME280;59654;52.216;5.616;2023-08-06T01:39:52;100210.59;;;14.05;100.00
71805;BME280;59654;52.216;5.616;2023-08-06T01:40:23;100208.91;;;14.04;100.00
71805;BME280;59654;52.216;5.616;2023-08-06T01:40:54;100202.00;;;14.00;100.00
71805;BME280;59654;52.216;5.616;2023-08-06T01:41:24;100208.91;;;14.04;100.00
71805;BME280;59654;52.216;5.616;2023-08-06T01:41:57;100204.59;;;14.01;100.00
71805;BME280;59654;52.216;5.616;2023-08-06T01:42:28;100202.78;;;14.02;100.00
71805;BME280;59654;52.216;5.616;2023-08-06T01:42:58;100203.63;;;14.02;100.00
71805;BME280;59654;52.216;5.616;2023-08-06T01:43:29;100208.91;;;14.04;100.00
71805;BME280;59654;52.216;5.616;2023-08-06T01:44:00;100205.44;;;14.02;100.00
71805;BME280;59654;52.216;5.616;2023-08-06T01:44:32;100208.13;;;14.02;100.00
71805;BME280;59654;52.216;5.616;2023-08-06T01:45:06;100208.03;;;14.03;100.00
71805;BME280;59654;52.216;5.616;2023-08-06T01:45:37;100202.88;;;14.00;100.00
71805;BME280;59654;52.216;5.616;2023-08-06T01:46:08;100200.94;;;14.02;100.00
71805;BME280;59654;52.216;5.616;2023-08-06T01:46:39;100203.53;;;14.04;100.00
71805;BME280;59654;52.216;5.616;2023-08-06T01:47:11;100211.59;;;14.04;100.00
71805;BME280;59654;52.216;5.616;2023-08-06T01:47:42;100211.69;;;14.02;100.00
71805;BME280;59654;52.216;5.616;2023-08-06T01:48:13;100204.50;;;14.03;100.00
71805;BME280;59654;52.216;5.616;2023-08-06T01:48:44;100206.22;;;14.04;100.00
71805;BME280;59654;52.216;5.616;2023-08-06T01:49:15;100202.78;;;14.02;100.00
71805;BME280;59654;52.216;5.616;2023-08-06T01:49:45;100201.72;;;14.04;100.00
71805;BME280;59654;52.216;5.616;2023-08-06T01:50:16;100201.91;;;14.01;100.00
71805;BME280;59654;52.216;5.616;2023-08-06T01:50:49;100203.53;;;14.04;100.00
71805;BME280;59654;52.216;5.616;2023-08-06T01:51:20;100199.88;;;14.05;100.00
71805;BME280;59654;52.216;5.616;2023-08-06T01:51:50;100199.88;;;14.05;100.00
71805;BME280;59654;52.216;5.616;2023-08-06T01:52:21;100199.88;;;14.05;100.00
71805;BME280;59654;52.216;5.616;2023-08-06T01:52:52;100207.09;;;14.04;100.00
71805;BME280;59654;52.216;5.616;2023-08-06T01:53:23;100198.91;;;14.06;100.00
71805;BME280;59654;52.216;5.616;2023-08-06T01:53:53;100202.47;;;14.06;100.00
71805;BME280;59654;52.216;5.616;2023-08-06T01:54:24;100202.47;;;14.06;100.00
71805;BME280;59654;52.216;5.616;2023-08-06T01:54:55;100201.59;;;14.06;100.00
71805;BME280;59654;52.216;5.616;2023-08-06T01:55:26;100201.59;;;14.06;100.00
71805;BME280;59654;52.216;5.616;2023-08-06T01:55:57;100202.47;;;14.06;100.00
71805;BME280;59654;52.216;5.616;2023-08-06T01:56:28;100208.69;;;14.07;100.00
71805;BME280;59654;52.216;5.616;2023-08-06T01:56:59;100199.88;;;14.05;100.00
71805;BME280;59654;52.216;5.616;2023-08-06T01:57:30;100203.31;;;14.07;100.00
71805;BME280;59654;52.216;5.616;2023-08-06T01:58:00;100206.09;;;14.05;100.00
71805;BME280;59654;52.216;5.616;2023-08-06T01:58:31;100203.31;;;14.07;100.00
71805;BME280;59654;52.216;5.616;2023-08-06T01:59:02;100205.13;;;14.06;100.00
71805;BME280;59654;52.216;5.616;2023-08-06T01:59:33;100205.03;;;14.08;100.00
71805;BME280;59654;52.216;5.616;2023-08-06T02:00:04;100208.59;;;14.08;100.00
71805;BME280;59654;52.216;5.616;2023-08-06T02:00:43;100208.69;;;14.07;100.00
71805;BME280;59654;52.216;5.616;2023-08-06T02:01:14;100209.44;;;14.09;100.00
71805;BME280;59654;52.216;5.616;2023-08-06T02:01:45;100209.44;;;14.09;100.00
71805;BME280;59654;52.216;5.616;2023-08-06T02:02:15;100206.88;;;14.07;100.00
71805;BME280;59654;52.216;5.616;2023-08-06T02:02:46;100208.50;;;14.10;100.00
71805;BME280;59654;52.216;5.616;2023-08-06T02:03:17;100202.28;;;14.09;100.00
71805;BME280;59654;52.216;5.616;2023-08-06T02:03:48;100216.53;;;14.10;100.00
71805;BME280;59654;52.216;5.616;2023-08-06T02:04:18;100209.34;;;14.10;100.00
71805;BME280;59654;52.216;5.616;2023-08-06T02:04:49;100210.31;;;14.09;100.00
71805;BME280;59654;52.216;5.616;2023-08-06T02:05:20;100213.00;;;14.09;100.00
71805;BME280;59654;52.216;5.616;2023-08-06T02:05:51;100212.13;;;14.09;100.00
71805;BME280;59654;52.216;5.616;2023-08-06T02:06:22;100208.50;;;14.10;100.00
71805;BME280;59654;52.216;5.616;2023-08-06T02:06:53;100211.19;;;14.10;100.00
71805;BME280;59654;52.216;5.616;2023-08-06T02:07:24;100209.34;;;14.10;100.00
71805;BME280;59654;52.216;5.616;2023-08-06T02:07:55;100211.09;;;14.11;100.00
71805;BME280;59654;52.216;5.616;2023-08-06T02:08:27;100209.25;;;14.12;100.00
71805;BME280;59654;52.216;5.616;2023-08-06T02:08:58;100215.59;;;14.11;100.00
71805;BME280;59654;52.216;5.616;2023-08-06T02:09:28;100212.81;;;14.12;100.00
71805;BME280;59654;52.216;5.616;2023-08-06T02:09:59;100211.09;;;14.11;100.00
71805;BME280;59654;52.216;5.616;2023-08-06T02:10:30;100210.22;;;14.11;100.00
71805;BME280;59654;52.216;5.616;2023-08-06T02:11:01;100212.81;;;14.12;100.00
71805;BME280;59654;52.216;5.616;2023-08-06T02:11:35;100211.00;;;14.13;100.00
71805;BME280;59654;52.216;5.616;2023-08-06T02:12:06;100211.00;;;14.13;100.00
71805;BME280;59654;52.216;5.616;2023-08-06T02:12:37;100209.06;;;14.15;100.00
71805;BME280;59654;52.216;5.616;2023-08-06T02:13:08;100214.44;;;14.15;100.00
71805;BME280;59654;52.216;5.616;2023-08-06T02:13:39;100210.91;;;14.14;100.00
71805;BME280;59654;52.216;5.616;2023-08-06T02:14:10;100210.03;;;14.14;100.00
71805;BME280;59654;52.216;5.616;2023-08-06T02:14:41;100208.13;;;14.16;100.00
71805;BME280;59654;52.216;5.616;2023-08-06T02:15:11;100205.44;;;14.16;100.00
71805;BME280;59654;52.216;5.616;2023-08-06T02:15:43;100205.44;;;14.16;100.00
71805;BME280;59654;52.216;5.616;2023-08-06T02:16:14;100208.22;;;14.14;100.00
71805;BME280;59654;52.216;5.616;2023-08-06T02:16:45;100206.41;;;14.15;100.00
71805;BME280;59654;52.216;5.616;2023-08-06T02:17:16;100203.63;;;14.17;100.00
71805;BME280;59654;52.216;5.616;2023-08-06T02:17:46;100209.94;;;14.16;100.00
71805;BME280;59654;52.216;5.616;2023-08-06T02:18:17;100204.47;;;14.17;100.00
71805;BME280;59654;52.216;5.616;2023-08-06T02:18:48;100208.13;;;14.16;100.00
71805;BME280;59654;52.216;5.616;2023-08-06T02:19:19;100207.16;;;14.17;100.00
71805;BME280;59654;52.216;5.616;2023-08-06T02:19:50;100207.16;;;14.17;100.00
71805;BME280;59654;52.216;5.616;2023-08-06T02:20:21;100203.44;;;14.20;100.00
71805;BME280;59654;52.216;5.616;2023-08-06T02:20:59;100203.44;;;14.20;100.00
71805;BME280;59654;52.216;5.616;2023-08-06T02:21:30;100207.06;;;14.19;100.00
71805;BME280;59654;52.216;5.616;2023-08-06T02:22:01;100205.25;;;14.19;100.00
71805;BME280;59654;52.216;5.616;2023-08-06T02:22:32;100207.06;;;14.19;100.00
71805;BME280;59654;52.216;5.616;2023-08-06T02:23:03;100199.88;;;14.19;100.00
71805;BME280;59654;52.216;5.616;2023-08-06T02:23:34;100198.16;;;14.18;100.00
71805;BME280;59654;52.216;5.616;2023-08-06T02:24:05;100202.56;;;14.19;100.00
71805;BME280;59654;52.216;5.616;2023-08-06T02:24:36;100202.56;;;14.19;100.00
71805;BME280;59654;52.216;5.616;2023-08-06T02:25:07;100200.63;;;14.21;100.00
71805;BME280;59654;52.216;5.616;2023-08-06T02:25:38;100203.31;;;14.21;100.00
71805;BME280;59654;52.216;5.616;2023-08-06T02:26:09;100204.16;;;14.22;100.00
71805;BME280;59654;52.216;5.616;2023-08-06T02:26:40;100196.13;;;14.22;100.00
71805;BME280;59654;52.216;5.616;2023-08-06T02:27:11;100204.28;;;14.20;100.00
71805;BME280;59654;52.216;5.616;2023-08-06T02:27:42;100199.66;;;14.22;100.00
71805;BME280;59654;52.216;5.616;2023-08-06T02:28:13;100197.94;;;14.21;100.00
71805;BME280;59654;52.216;5.616;2023-08-06T02:28:44;100197.84;;;14.23;100.00
71805;BME280;59654;52.216;5.616;2023-08-06T02:29:17;100207.72;;;14.22;100.00
71805;BME280;59654;52.216;5.616;2023-08-06T02:29:48;100206.84;;;14.22;100.00
71805;BME280;59654;52.216;5.616;2023-08-06T02:30:19;100208.66;;;14.21;100.00
71805;BME280;59654;52.216;5.616;2023-08-06T02:30:51;100200.63;;;14.21;100.00
71805;BME280;59654;52.216;5.616;2023-08-06T02:31:22;100201.47;;;14.22;100.00
71805;BME280;59654;52.216;5.616;2023-08-06T02:31:53;100197.84;;;14.23;100.00
71805;BME280;59654;52.216;5.616;2023-08-06T02:32:24;100205.88;;;14.23;100.00
71805;BME280;59654;52.216;5.616;2023-08-06T02:32:55;100196.97;;;14.22;100.00
71805;BME280;59654;52.216;5.616;2023-08-06T02:33:26;100199.66;;;14.22;100.00
71805;BME280;59654;52.216;5.616;2023-08-06T02:33:58;100201.38;;;14.23;100.00
71805;BME280;59654;52.216;5.616;2023-08-06T02:34:29;100198.72;;;14.23;100.00
71805;BME280;59654;52.216;5.616;2023-08-06T02:35:00;100197.75;;;14.24;100.00
71805;BME280;59654;52.216;5.616;2023-08-06T02:35:30;100202.16;;;14.25;100.00
71805;BME280;59654;52.216;5.616;2023-08-06T02:36:02;100201.28;;;14.25;100.00
71805;BME280;59654;52.216;5.616;2023-08-06T02:36:36;100196.78;;;14.25;100.00
71805;BME280;59654;52.216;5.616;2023-08-06T02:37:06;100199.47;;;14.25;100.00
71805;BME280;59654;52.216;5.616;2023-08-06T02:37:37;100194.13;;;14.25;100.00
71805;BME280;59654;52.216;5.616;2023-08-06T02:38:08;100196.78;;;14.25;100.00
71805;BME280;59654;52.216;5.616;2023-08-06T02:38:39;100196.78;;;14.25;100.00
71805;BME280;59654;52.216;5.616;2023-08-06T02:39:10;100194.03;;;14.27;100.00
71805;BME280;59654;52.216;5.616;2023-08-06T02:39:41;100194.88;;;14.27;100.00
71805;BME280;59654;52.216;5.616;2023-08-06T02:40:11;100197.56;;;14.27;100.00
71805;BME280;59654;52.216;5.616;2023-08-06T02:40:46;100198.44;;;14.28;100.00
71805;BME280;59654;52.216;5.616;2023-08-06T02:41:17;100205.59;;;14.27;100.00
71805;BME280;59654;52.216;5.616;2023-08-06T02:41:48;100191.34;;;14.27;100.00
71805;BME280;59654;52.216;5.616;2023-08-06T02:42:19;100192.19;;;14.27;100.00
71805;BME280;59654;52.216;5.616;2023-08-06T02:42:50;100191.34;;;14.27;100.00
71805;BME280;59654;52.216;5.616;2023-08-06T02:43:21;100188.66;;;14.27;100.00
71805;BME280;59654;52.216;5.616;2023-08-06T02:43:52;100189.53;;;14.27;100.00
71805;BME280;59654;52.216;5.616;2023-08-06T02:44:23;100192.19;;;14.27;100.00
71805;BME280;59654;52.216;5.616;2023-08-06T02:44:57;100199.38;;;14.27;100.00
71805;BME280;59654;52.216;5.616;2023-08-06T02:45:29;100197.56;;;14.27;100.00
71805;BME280;59654;52.216;5.616;2023-08-06T02:46:00;100193.94;;;14.28;100.00
71805;BME280;59654;52.216;5.616;2023-08-06T02:46:32;100191.34;;;14.27;100.00
71805;BME280;59654;52.216;5.616;2023-08-06T02:47:04;100185.00;;;14.28;100.00
71805;BME280;59654;52.216;5.616;2023-08-06T02:47:35;100190.47;;;14.26;100.00
71805;BME280;59654;52.216;5.616;2023-08-06T02:48:06;100194.88;;;14.27;100.00
71805;BME280;59654;52.216;5.616;2023-08-06T02:48:36;100185.88;;;14.28;100.00
71805;BME280;59654;52.216;5.616;2023-08-06T02:49:07;100191.25;;;14.28;100.00
71805;BME280;59654;52.216;5.616;2023-08-06T02:49:38;100183.19;;;14.28;100.00
71805;BME280;59654;52.216;5.616;2023-08-06T02:50:09;100185.88;;;14.28;100.00
71805;BME280;59654;52.216;5.616;2023-08-06T02:50:41;100184.16;;;14.27;100.00
71805;BME280;59654;52.216;5.616;2023-08-06T02:51:12;100184.16;;;14.27;100.00
71805;BME280;59654;52.216;5.616;2023-08-06T02:51:45;100182.44;;;14.26;100.00